Guadalupe Mtns National Park, TX

3:19 PM MDT on July 23, 2016 (GMT -0600)
APRSWXNET | | Change Station

Elev 3694 ft 31.73 °N, 104.93 °W | Updated 16 minutes ago

Clear
Clear
103 °F
Feels Like 101 °F
N
3
Wind Variable Wind from SSW
Gusts 6.0 mph

Today
High -- | Low -- °F
--% Chance of Precip.
Yesterday
High -- | Low -- °F
Precip. -- in
Pressure 29.85 in
Visibility 10.0 miles
Clouds Clear
Heat Index 101 °F
Dew Point 53 °F
Humidity 19%
Rainfall in
Snow Depth Not available.
6:10 AM 8:02 PM
Waning Gibbous, 82% visible
METAR KGDP 232051Z AUTO VRB04G16KT 10SM CLR 34/07 A3014 RMK AO2 SLP106 T03440072 56018
Pressure 29.85 in
Visibility 10.0 miles
Clouds Clear
Heat Index 101 °F
Dew Point 53 °F
Humidity 19%
Rainfall in
Snow Depth Not available.
6:10 AM 8:02 PM
Waning Gibbous, 82% visible
METAR KGDP 232051Z AUTO VRB04G16KT 10SM CLR 34/07 A3014 RMK AO2 SLP106 T03440072 56018

10-Day Weather Forecast

Almanac

Astronomy

Jul. 23, 2016 Rise Set
Actual Time
Civil Twilight
Nautical Twilight
Astronomical Twilight
Moon
Length of Visible Light
Length of Day
Tomorrow will be .
, % of the Moon is Illuminated

Today's Extremes

State Highs State Lows

Community

WunderPhotos

Upload Photos

1,926,927 photos uploaded!

WunderBlog® & News

Nearby

Air Quality

  Air Quality AQ Index Pollutant
Not available.

Snow Depth

Station Depth Elevation

Earthquake Activity

City Distance Mag. Time & Date
Minimum magnitude displayed is 2.5.

Coastal Water Temperatures

Place Temperature

Stations

Nearby Weather Stations

Station Location Temp. Windchill Dew Point Humidity Wind Precip. Elev Updated Type
                   

Watches & Warnings

There are currently no watches in effect.